Terminal Aerodrome Forecast
Issued by NWS Buffalo, NY

Home | Current Version | Previous Version | Text Only | Print | Product List | Glossary On
Versions: 1 2 3 4 5 6 7 8 9 10 11 12 13 14 15 16 17 18 19 20 21 22 23 24 25 26 27 28
839
FTUS41 KBUF 270259 AAA
TAFART
TAF AMD
KART 270259Z 2703/2724 03003KT P6SM BKN029 OVC040
     FM270900 07005KT P6SM BKN050
     FM271500 05005KT P6SM SCT050
     FM271900 01005KT P6SM SCT060=

USA.gov is the U.S. government's official web portal to all federal, state and local government web resources and services.